createdAt,value
2023-03-30T00:00:57.151Z,689.37
2023-03-30T00:01:57.109Z,691.57
2023-03-30T00:02:57.213Z,688.31
2023-03-30T00:03:57.223Z,686.59
2023-03-30T00:04:57.312Z,686.14
2023-03-30T00:05:57.086Z,685.43
2023-03-30T00:06:57.073Z,687.67
2023-03-30T00:07:57.039Z,687.20
2023-03-30T00:08:57.085Z,689.16
2023-03-30T00:09:57.053Z,691.23
2023-03-30T00:10:57.019Z,691.04
2023-03-30T00:11:57.009Z,687.52
2023-03-30T00:12:57.000Z,685.36
2023-03-30T00:13:57.489Z,686.97
2023-03-30T00:14:56.966Z,687.46
2023-03-30T00:15:56.971Z,690.11
2023-03-30T00:16:57.034Z,689.37
2023-03-30T00:17:57.046Z,692.18
2023-03-30T00:18:56.949Z,690.31
2023-03-30T00:19:56.948Z,690.29
2023-03-30T00:20:56.924Z,690.30
2023-03-30T00:21:56.896Z,691.93
2023-03-30T00:22:56.894Z,689.95
2023-03-30T00:23:56.885Z,689.69
2023-03-30T00:24:56.860Z,691.02
2023-03-30T00:25:56.855Z,694.49
2023-03-30T00:26:56.838Z,695.88
2023-03-30T00:27:56.820Z,695.70
2023-03-30T00:28:56.823Z,693.89
2023-03-30T00:29:56.813Z,695.67
2023-03-30T00:30:56.814Z,695.21
2023-03-30T00:31:56.832Z,694.86
2023-03-30T00:32:56.817Z,693.87
2023-03-30T00:33:56.765Z,694.83
2023-03-30T00:34:56.770Z,694.23
2023-03-30T00:35:56.827Z,694.31
2023-03-30T00:36:56.750Z,693.60
2023-03-30T00:37:56.715Z,693.74
2023-03-30T00:38:56.700Z,693.97
2023-03-30T00:39:56.691Z,694.19
2023-03-30T00:40:56.698Z,698.05
2023-03-30T00:41:56.695Z,698.98
2023-03-30T00:43:04.184Z,697.29
2023-03-30T00:43:56.640Z,699.78
2023-03-30T00:44:56.649Z,699.30
2023-03-30T00:45:56.652Z,699.78
2023-03-30T00:46:56.611Z,696.34
2023-03-30T00:47:56.703Z,696.10
2023-03-30T00:48:56.588Z,696.90
2023-03-30T00:49:56.590Z,695.51
2023-03-30T00:50:56.608Z,694.98
2023-03-30T00:51:56.569Z,696.90
2023-03-30T00:52:56.601Z,696.20
2023-03-30T00:53:56.531Z,693.99
2023-03-30T00:54:56.528Z,694.70
2023-03-30T00:55:56.517Z,694.27
2023-03-30T00:56:56.608Z,696.81
2023-03-30T00:57:56.487Z,695.55
2023-03-30T00:58:56.479Z,695.93
2023-03-30T00:59:56.478Z,696.43
2023-03-30T01:00:56.469Z,696.58
2023-03-30T01:01:56.494Z,697.91
2023-03-30T01:02:56.603Z,697.75
2023-03-30T01:03:56.478Z,695.77
2023-03-30T01:04:56.434Z,697.69
2023-03-30T01:05:56.410Z,696.58
2023-03-30T01:06:56.420Z,697.13
2023-03-30T01:07:56.393Z,698.67
2023-03-30T01:08:56.374Z,698.09
2023-03-30T01:09:56.360Z,698.38
2023-03-30T01:10:56.397Z,697.69
2023-03-30T01:11:56.396Z,698.15
2023-03-30T01:12:56.325Z,699.44
2023-03-30T01:13:56.344Z,701.60
2023-03-30T01:14:56.307Z,701.67
2023-03-30T01:15:56.395Z,698.43
2023-03-30T01:16:56.296Z,697.90
2023-03-30T01:17:56.330Z,699.07
2023-03-30T01:18:56.263Z,699.69
2023-03-30T01:19:56.246Z,702.18
2023-03-30T01:20:56.249Z,700.06
2023-03-30T01:21:56.235Z,699.82
2023-03-30T01:22:56.244Z,700.80
2023-03-30T01:23:56.222Z,700.61
2023-03-30T01:24:56.231Z,702.30
2023-03-30T01:25:56.181Z,701.58
2023-03-30T01:26:56.170Z,701.81
2023-03-30T01:27:56.160Z,699.44
2023-03-30T01:28:56.159Z,699.70
2023-03-30T01:29:56.150Z,698.99
2023-03-30T01:30:56.169Z,700.92
2023-03-30T01:31:56.127Z,702.23
2023-03-30T01:32:56.178Z,703.41
2023-03-30T01:33:56.088Z,700.72
2023-03-30T01:34:56.110Z,700.20
2023-03-30T01:35:56.188Z,701.62
2023-03-30T01:36:56.064Z,701.16
2023-03-30T01:37:56.069Z,701.40
2023-03-30T01:38:56.082Z,700.25
2023-03-30T01:39:56.042Z,701.24
2023-03-30T01:40:56.016Z,700.32
2023-03-30T01:41:56.021Z,704.57
2023-03-30T01:42:56.545Z,703.21
2023-03-30T01:43:55.981Z,702.83
2023-03-30T01:44:55.981Z,702.92
2023-03-30T01:45:55.976Z,702.85
2023-03-30T01:46:55.992Z,705.85
2023-03-30T01:47:55.995Z,707.50
2023-03-30T01:48:55.955Z,706.45
2023-03-30T01:49:55.919Z,704.15
2023-03-30T01:50:55.918Z,702.53
2023-03-30T01:51:55.896Z,702.78
2023-03-30T01:52:55.887Z,703.92
2023-03-30T01:53:55.899Z,702.10
2023-03-30T01:54:55.889Z,702.74
2023-03-30T01:55:55.869Z,705.35
2023-03-30T01:56:55.888Z,707.28
2023-03-30T01:57:55.827Z,708.12
2023-03-30T01:58:55.862Z,704.53
2023-03-30T01:59:55.826Z,705.90
2023-03-30T02:00:55.814Z,705.32
2023-03-30T02:01:55.830Z,702.18
2023-03-30T02:02:55.927Z,702.77
2023-03-30T02:03:55.899Z,702.87
2023-03-30T02:04:55.779Z,704.92
2023-03-30T02:05:55.745Z,709.28
2023-03-30T02:06:55.732Z,707.21
2023-03-30T02:07:55.730Z,704.93
2023-03-30T02:08:55.737Z,703.92
2023-03-30T02:09:55.698Z,704.36
2023-03-30T02:10:55.714Z,705.84
2023-03-30T02:11:55.681Z,705.45
2023-03-30T02:12:55.668Z,705.91
2023-03-30T02:13:55.667Z,704.82
2023-03-30T02:14:55.664Z,705.82
2023-03-30T02:15:55.688Z,711.65
2023-03-30T02:16:55.627Z,708.83
2023-03-30T02:17:55.709Z,709.67
2023-03-30T02:18:55.613Z,708.51
2023-03-30T02:19:55.593Z,706.96
2023-03-30T02:20:55.585Z,703.94
2023-03-30T02:21:55.565Z,708.32
2023-03-30T02:22:55.572Z,704.50
2023-03-30T02:23:55.546Z,706.70
2023-03-30T02:24:55.556Z,715.87
2023-03-30T02:25:55.535Z,710.18
2023-03-30T02:26:55.540Z,706.92
2023-03-30T02:27:55.532Z,708.17
2023-03-30T02:28:55.503Z,706.35
2023-03-30T02:29:55.486Z,704.08
2023-03-30T02:30:55.477Z,709.19
2023-03-30T02:31:55.505Z,714.55
2023-03-30T02:32:55.497Z,710.17
2023-03-30T02:33:55.443Z,706.23
2023-03-30T02:34:55.431Z,703.05
2023-03-30T02:35:55.461Z,705.33
2023-03-30T02:36:55.418Z,708.36
2023-03-30T02:37:55.407Z,708.79
2023-03-30T02:38:55.388Z,706.32
2023-03-30T02:39:55.375Z,706.93
2023-03-30T02:40:55.384Z,705.62
2023-03-30T02:41:55.353Z,704.27
2023-03-30T02:42:55.395Z,704.48
2023-03-30T02:44:02.846Z,699.87
2023-03-30T02:44:55.327Z,707.61
2023-03-30T02:45:55.332Z,710.72
2023-03-30T02:46:55.300Z,711.01
2023-03-30T02:47:55.345Z,716.21
2023-03-30T02:48:55.288Z,715.85
2023-03-30T02:49:55.263Z,712.78
2023-03-30T02:50:55.254Z,710.30
2023-03-30T02:51:55.246Z,711.05
2023-03-30T02:52:55.260Z,711.48
2023-03-30T02:53:55.232Z,710.52
2023-03-30T02:54:55.235Z,711.19
2023-03-30T02:55:55.198Z,713.04
2023-03-30T02:56:55.220Z,711.78
2023-03-30T02:57:55.181Z,713.14
2023-03-30T02:58:55.211Z,711.78
2023-03-30T02:59:55.166Z,709.72
2023-03-30T03:00:57.396Z,710.70
2023-03-30T03:01:55.209Z,709.89
2023-03-30T03:02:55.285Z,714.57
2023-03-30T03:03:55.126Z,712.27
2023-03-30T03:04:55.107Z,711.09
2023-03-30T03:05:55.106Z,715.93
2023-03-30T03:06:55.086Z,713.39
2023-03-30T03:07:55.068Z,716.77
2023-03-30T03:08:55.101Z,714.95
2023-03-30T03:09:55.047Z,711.14
2023-03-30T03:10:55.045Z,717.97
2023-03-30T03:11:56.024Z,715.97
2023-03-30T03:12:55.022Z,717.44
2023-03-30T03:13:55.037Z,713.69
2023-03-30T03:14:55.021Z,710.86
2023-03-30T03:15:55.020Z,711.51
2023-03-30T03:16:55.021Z,709.53
2023-03-30T03:17:55.004Z,714.65
2023-03-30T03:18:54.968Z,711.61
2023-03-30T03:19:54.941Z,708.82
2023-03-30T03:20:54.948Z,712.04
2023-03-30T03:21:54.920Z,715.43
2023-03-30T03:22:54.923Z,713.20
2023-03-30T03:23:54.911Z,716.73
2023-03-30T03:24:54.891Z,716.42
2023-03-30T03:25:54.893Z,711.95
2023-03-30T03:26:54.884Z,709.36
2023-03-30T03:27:54.851Z,712.38
2023-03-30T03:28:54.857Z,710.11
2023-03-30T03:29:54.832Z,708.89
2023-03-30T03:30:54.907Z,708.61
2023-03-30T03:31:54.815Z,718.26
2023-03-30T03:32:54.849Z,713.47
2023-03-30T03:33:54.788Z,708.23
2023-03-30T03:34:54.777Z,707.76
2023-03-30T03:35:54.860Z,704.92
2023-03-30T03:36:54.765Z,706.08
2023-03-30T03:37:54.746Z,710.12
2023-03-30T03:38:54.739Z,713.10
2023-03-30T03:39:54.726Z,711.67
2023-03-30T03:40:54.778Z,706.26
2023-03-30T03:41:54.722Z,707.66
2023-03-30T03:42:54.765Z,709.54
2023-03-30T03:43:54.731Z,709.15
2023-03-30T03:44:54.763Z,707.34
2023-03-30T03:45:54.658Z,704.69
2023-03-30T03:46:54.811Z,706.33
2023-03-30T03:47:54.765Z,705.63
2023-03-30T03:48:54.641Z,705.81
2023-03-30T03:49:54.623Z,704.96
2023-03-30T03:50:54.641Z,705.61
2023-03-30T03:51:54.615Z,708.07
2023-03-30T03:52:54.589Z,709.87
2023-03-30T03:53:54.584Z,708.41
2023-03-30T03:54:54.573Z,710.08
2023-03-30T03:55:54.552Z,709.22
2023-03-30T03:56:54.604Z,705.86
2023-03-30T03:57:54.575Z,703.68
2023-03-30T03:58:54.536Z,703.27
2023-03-30T03:59:54.534Z,705.79
2023-03-30T04:00:54.541Z,707.75
2023-03-30T04:01:54.517Z,712.46
2023-03-30T04:02:54.517Z,711.58
2023-03-30T04:03:54.469Z,709.31
2023-03-30T04:04:54.542Z,709.45
2023-03-30T04:05:54.445Z,711.91
2023-03-30T04:06:54.429Z,709.74
2023-03-30T04:07:54.422Z,711.68
2023-03-30T04:08:54.421Z,712.74
2023-03-30T04:09:54.424Z,711.07
2023-03-30T04:10:54.402Z,709.57
2023-03-30T04:11:54.400Z,707.68
2023-03-30T04:12:54.387Z,709.78
2023-03-30T04:13:54.389Z,707.04
2023-03-30T04:14:54.357Z,707.28
2023-03-30T04:15:54.453Z,706.57
2023-03-30T04:16:54.326Z,708.99
2023-03-30T04:17:54.395Z,708.05
2023-03-30T04:18:54.342Z,706.89
2023-03-30T04:19:54.299Z,706.17
2023-03-30T04:20:54.287Z,706.92
2023-03-30T04:21:54.268Z,706.90
2023-03-30T04:22:54.315Z,705.16
2023-03-30T04:23:54.268Z,705.98
2023-03-30T04:24:54.233Z,714.21
2023-03-30T04:25:54.256Z,714.59
2023-03-30T04:26:54.218Z,718.53
2023-03-30T04:27:54.203Z,719.89
2023-03-30T04:28:54.226Z,721.72
2023-03-30T04:29:54.192Z,721.01
2023-03-30T04:30:54.206Z,719.74
2023-03-30T04:31:54.238Z,720.23
2023-03-30T04:32:54.230Z,722.18
2023-03-30T04:33:54.150Z,719.66
2023-03-30T04:34:54.165Z,715.57
2023-03-30T04:35:54.196Z,714.57
2023-03-30T04:36:54.147Z,713.10
2023-03-30T04:37:54.101Z,713.47
2023-03-30T04:38:54.081Z,719.76
2023-03-30T04:39:54.094Z,711.89
2023-03-30T04:40:55.046Z,706.14
2023-03-30T04:41:54.081Z,705.70
2023-03-30T04:42:54.041Z,703.64
2023-03-30T04:43:54.041Z,702.39
2023-03-30T04:45:01.590Z,695.36
2023-03-30T04:45:54.067Z,709.10
2023-03-30T04:46:54.002Z,722.39
2023-03-30T04:47:54.062Z,725.71
2023-03-30T04:48:53.984Z,719.30
2023-03-30T04:49:53.981Z,720.25
2023-03-30T04:50:53.993Z,720.69
2023-03-30T04:51:53.958Z,719.28
2023-03-30T04:52:53.959Z,718.32
2023-03-30T04:53:53.924Z,716.75
2023-03-30T04:54:53.927Z,725.93
2023-03-30T04:55:53.934Z,727.85
2023-03-30T04:56:53.899Z,725.86
2023-03-30T04:57:53.881Z,720.40
2023-03-30T04:58:53.873Z,718.16
2023-03-30T04:59:54.671Z,717.66
2023-03-30T05:00:53.915Z,724.13
2023-03-30T05:01:53.850Z,723.61
2023-03-30T05:02:53.893Z,718.00
2023-03-30T05:03:53.884Z,716.31
2023-03-30T05:04:53.803Z,715.18
2023-03-30T05:05:53.803Z,711.10
2023-03-30T05:06:53.823Z,718.31
2023-03-30T05:07:53.778Z,718.16
2023-03-30T05:08:53.764Z,716.94
2023-03-30T05:09:53.757Z,715.95
2023-03-30T05:10:53.768Z,716.58
2023-03-30T05:11:53.761Z,713.52
2023-03-30T05:12:53.733Z,715.08
2023-03-30T05:13:53.722Z,714.31
2023-03-30T05:14:53.698Z,717.06
2023-03-30T05:15:53.736Z,713.12
2023-03-30T05:16:53.776Z,714.11
2023-03-30T05:17:53.719Z,715.44
2023-03-30T05:18:53.652Z,724.24
2023-03-30T05:19:53.665Z,718.02
2023-03-30T05:20:53.641Z,716.36
2023-03-30T05:21:53.648Z,719.26
2023-03-30T05:22:53.661Z,717.56
2023-03-30T05:23:53.612Z,716.65
2023-03-30T05:24:53.590Z,724.24
2023-03-30T05:25:53.743Z,726.66
2023-03-30T05:26:53.567Z,722.34
2023-03-30T05:27:53.578Z,719.71
2023-03-30T05:28:53.557Z,727.70
2023-03-30T05:29:53.543Z,723.85
2023-03-30T05:30:53.593Z,720.23
2023-03-30T05:31:53.578Z,718.99
2023-03-30T05:32:53.615Z,718.18
2023-03-30T05:33:53.498Z,715.18
2023-03-30T05:34:53.491Z,724.30
2023-03-30T05:35:53.523Z,721.35
2023-03-30T05:36:53.458Z,713.95
2023-03-30T05:37:53.449Z,719.23
2023-03-30T05:38:53.467Z,723.81
2023-03-30T05:39:53.481Z,719.65
2023-03-30T05:40:54.161Z,716.03
2023-03-30T05:41:53.420Z,720.30
2023-03-30T05:42:53.715Z,713.02
2023-03-30T05:43:53.378Z,713.95
2023-03-30T05:44:53.688Z,710.68
2023-03-30T05:45:53.405Z,714.32
2023-03-30T05:46:53.531Z,713.41
2023-03-30T05:47:53.350Z,721.25
2023-03-30T05:48:53.360Z,722.88
2023-03-30T05:49:53.414Z,716.30
2023-03-30T05:50:53.504Z,712.21
2023-03-30T05:51:53.328Z,718.66
2023-03-30T05:52:53.306Z,716.28
2023-03-30T05:53:53.310Z,714.55
2023-03-30T05:54:53.301Z,719.98
2023-03-30T05:55:53.296Z,725.08
2023-03-30T05:56:53.290Z,723.37
2023-03-30T05:57:53.224Z,712.61
2023-03-30T05:58:53.236Z,713.36
2023-03-30T05:59:53.230Z,716.50
2023-03-30T06:00:53.209Z,708.37
2023-03-30T06:01:53.189Z,715.50
2023-03-30T06:02:53.244Z,713.99
2023-03-30T06:03:53.550Z,722.36
2023-03-30T06:04:53.202Z,717.04
2023-03-30T06:05:53.146Z,713.88
2023-03-30T06:06:53.150Z,717.25
2023-03-30T06:07:53.138Z,718.27
2023-03-30T06:08:53.099Z,717.09
2023-03-30T06:09:53.604Z,710.70
2023-03-30T06:10:53.108Z,710.76
2023-03-30T06:11:53.121Z,719.97
2023-03-30T06:12:53.062Z,718.41
2023-03-30T06:13:53.061Z,709.76
2023-03-30T06:14:53.070Z,712.44
2023-03-30T06:15:53.048Z,713.44
2023-03-30T06:16:53.071Z,712.26
2023-03-30T06:17:53.071Z,712.89
2023-03-30T06:18:53.002Z,710.43
2023-03-30T06:19:52.996Z,713.66
2023-03-30T06:20:52.964Z,706.88
2023-03-30T06:21:52.967Z,706.11
2023-03-30T06:22:52.951Z,707.14
2023-03-30T06:23:52.947Z,707.73
2023-03-30T06:24:52.957Z,705.37
2023-03-30T06:25:53.233Z,707.14
2023-03-30T06:26:52.917Z,707.38
2023-03-30T06:27:52.945Z,715.35
2023-03-30T06:28:52.881Z,708.36
2023-03-30T06:29:53.009Z,710.26
2023-03-30T06:30:52.928Z,712.38
2023-03-30T06:31:52.939Z,714.16
2023-03-30T06:32:52.876Z,707.18
2023-03-30T06:33:52.841Z,708.12
2023-03-30T06:34:52.927Z,710.42
2023-03-30T06:35:52.883Z,716.44
2023-03-30T06:36:52.796Z,713.82
2023-03-30T06:37:52.786Z,705.50
2023-03-30T06:38:52.782Z,704.79
2023-03-30T06:39:52.755Z,711.65
2023-03-30T06:40:52.741Z,705.51
2023-03-30T06:41:52.765Z,704.56
2023-03-30T06:42:52.833Z,704.28
2023-03-30T06:43:52.770Z,706.44
2023-03-30T06:44:52.701Z,706.50
2023-03-30T06:47:08.609Z,693.66
2023-03-30T06:48:08.596Z,712.01
2023-03-30T06:49:08.594Z,718.95
2023-03-30T06:50:08.556Z,723.63
2023-03-30T06:51:08.550Z,722.52
2023-03-30T06:52:08.880Z,720.57
2023-03-30T06:53:08.540Z,715.89
2023-03-30T06:54:08.535Z,722.13
2023-03-30T06:55:08.516Z,719.31
2023-03-30T06:56:08.515Z,713.41
2023-03-30T06:57:08.590Z,715.53
2023-03-30T06:58:08.500Z,718.39
2023-03-30T06:59:08.497Z,713.48
2023-03-30T07:00:08.450Z,708.90
2023-03-30T07:01:08.457Z,714.97
2023-03-30T07:02:08.429Z,709.28
2023-03-30T07:03:08.490Z,710.18
2023-03-30T07:04:08.442Z,710.53
2023-03-30T07:05:08.464Z,716.55
2023-03-30T07:06:08.440Z,718.64
2023-03-30T07:07:08.383Z,711.35
2023-03-30T07:08:08.540Z,714.80
2023-03-30T07:09:08.372Z,712.43
2023-03-30T07:10:08.377Z,713.23
2023-03-30T07:11:08.354Z,712.31
2023-03-30T07:12:08.316Z,710.50
2023-03-30T07:13:08.313Z,707.02
2023-03-30T07:14:08.332Z,713.26
2023-03-30T07:15:08.284Z,712.12
2023-03-30T07:16:08.307Z,707.85
2023-03-30T07:17:08.302Z,715.38
2023-03-30T07:18:08.535Z,714.25
2023-03-30T07:19:08.259Z,713.74
2023-03-30T07:20:08.244Z,714.84
2023-03-30T07:21:08.260Z,713.91
2023-03-30T07:22:08.226Z,713.63
2023-03-30T07:23:08.219Z,709.75
2023-03-30T07:24:08.214Z,711.54
2023-03-30T07:25:08.213Z,711.09
2023-03-30T07:26:08.181Z,715.97
2023-03-30T07:27:08.164Z,710.56
2023-03-30T07:28:08.135Z,711.25
2023-03-30T07:29:08.139Z,716.33
2023-03-30T07:30:20.553Z,711.32
2023-03-30T07:31:09.220Z,714.33
2023-03-30T07:32:08.123Z,710.72
2023-03-30T07:33:08.162Z,709.45
2023-03-30T07:34:08.085Z,711.86
2023-03-30T07:35:08.601Z,716.74
2023-03-30T07:36:08.090Z,717.94
2023-03-30T07:37:08.077Z,717.94
2023-03-30T07:38:08.033Z,711.37
2023-03-30T07:39:08.028Z,713.11
2023-03-30T07:40:08.046Z,709.25
2023-03-30T07:41:08.026Z,711.16
2023-03-30T07:42:08.022Z,707.57
2023-03-30T07:43:07.989Z,707.03
2023-03-30T07:44:07.964Z,715.77
2023-03-30T07:45:07.970Z,710.04
2023-03-30T07:46:08.082Z,714.14
2023-03-30T07:47:08.032Z,707.77
2023-03-30T07:48:07.956Z,705.39
2023-03-30T07:49:07.906Z,703.04
2023-03-30T07:50:07.900Z,704.11
2023-03-30T07:51:07.942Z,715.81
2023-03-30T07:52:07.870Z,712.15
2023-03-30T07:53:08.777Z,715.09
2023-03-30T07:54:07.849Z,715.78
2023-03-30T07:55:07.844Z,712.85
2023-03-30T07:56:07.856Z,713.91
2023-03-30T07:57:07.950Z,715.81
2023-03-30T07:58:07.894Z,717.62
2023-03-30T07:59:07.861Z,713.01
2023-03-30T08:00:07.862Z,712.81
2023-03-30T08:01:07.789Z,711.09
2023-03-30T08:02:08.257Z,718.38
2023-03-30T08:03:07.814Z,716.59
2023-03-30T08:04:07.861Z,719.29
2023-03-30T08:05:07.859Z,723.60
2023-03-30T08:06:07.764Z,720.48
2023-03-30T08:07:07.713Z,717.65
2023-03-30T08:08:07.743Z,718.55
2023-03-30T08:09:07.694Z,717.16
2023-03-30T08:10:07.707Z,713.87
2023-03-30T08:11:07.703Z,711.55
2023-03-30T08:12:07.753Z,709.86
2023-03-30T08:13:07.799Z,713.83
2023-03-30T08:14:07.766Z,718.96
2023-03-30T08:15:07.684Z,717.89
2023-03-30T08:16:07.647Z,712.86
2023-03-30T08:17:07.652Z,713.20
2023-03-30T08:18:07.851Z,713.74
2023-03-30T08:19:07.588Z,712.50
2023-03-30T08:20:07.562Z,715.99
2023-03-30T08:21:07.716Z,710.91
2023-03-30T08:22:07.535Z,712.88
2023-03-30T08:23:07.528Z,720.93
2023-03-30T08:24:07.537Z,720.41
2023-03-30T08:25:07.509Z,714.72
2023-03-30T08:26:07.511Z,719.49
2023-03-30T08:27:07.719Z,715.96
2023-03-30T08:28:07.471Z,714.15
2023-03-30T08:29:07.461Z,718.71
2023-03-30T08:30:07.458Z,712.87
2023-03-30T08:31:07.652Z,714.85
2023-03-30T08:32:07.462Z,718.56
2023-03-30T08:33:07.446Z,712.52
2023-03-30T08:34:07.429Z,705.13
2023-03-30T08:35:07.401Z,710.17
2023-03-30T08:36:07.672Z,709.91
2023-03-30T08:37:07.407Z,715.05
2023-03-30T08:38:07.379Z,710.81
2023-03-30T08:39:07.493Z,715.28
2023-03-30T08:40:07.353Z,713.96
2023-03-30T08:41:07.573Z,713.17
2023-03-30T08:42:07.315Z,706.88
2023-03-30T08:43:07.317Z,706.34
2023-03-30T08:44:07.312Z,706.52
2023-03-30T08:45:07.329Z,707.60
2023-03-30T08:46:07.342Z,706.44
2023-03-30T08:47:14.801Z,713.98
2023-03-30T08:48:07.283Z,709.11
2023-03-30T08:49:07.309Z,714.09
2023-03-30T08:50:07.278Z,714.90
2023-03-30T08:51:07.224Z,712.74
2023-03-30T08:52:07.205Z,711.97
2023-03-30T08:53:07.243Z,702.72
2023-03-30T08:54:07.368Z,702.13
2023-03-30T08:55:07.284Z,699.98
2023-03-30T08:56:07.196Z,704.47
2023-03-30T08:57:07.217Z,701.55
2023-03-30T08:58:07.145Z,701.46
2023-03-30T08:59:07.817Z,702.28
2023-03-30T09:00:07.168Z,693.68
2023-03-30T09:01:07.423Z,690.79
2023-03-30T09:02:07.144Z,693.07
2023-03-30T09:03:07.304Z,701.50
2023-03-30T09:04:07.099Z,691.62
2023-03-30T09:05:07.105Z,688.50
2023-03-30T09:06:07.092Z,683.71
2023-03-30T09:07:07.041Z,682.63
2023-03-30T09:08:07.036Z,682.33
2023-03-30T09:09:07.027Z,684.06
2023-03-30T09:10:07.025Z,688.79
2023-03-30T09:11:07.124Z,687.20
2023-03-30T09:12:06.986Z,685.36
2023-03-30T09:13:06.993Z,689.46
2023-03-30T09:14:07.009Z,693.31
2023-03-30T09:15:06.981Z,688.79
2023-03-30T09:16:06.964Z,687.49
2023-03-30T09:17:06.949Z,687.68
2023-03-30T09:18:06.963Z,692.85
2023-03-30T09:19:06.943Z,694.52
2023-03-30T09:20:06.936Z,690.04
2023-03-30T09:21:07.397Z,688.64
2023-03-30T09:22:06.913Z,679.90
2023-03-30T09:23:06.866Z,665.03
2023-03-30T09:24:06.872Z,649.18
2023-03-30T09:25:06.840Z,643.87
2023-03-30T09:26:06.823Z,637.27
2023-03-30T09:27:06.828Z,631.57
2023-03-30T09:28:06.818Z,628.15
2023-03-30T09:29:06.791Z,624.08
2023-03-30T09:30:06.935Z,623.60
2023-03-30T09:31:07.048Z,622.98
2023-03-30T09:32:06.841Z,622.94
2023-03-30T09:33:06.804Z,622.89
2023-03-30T09:34:09.137Z,622.91
2023-03-30T09:35:06.730Z,622.92
2023-03-30T09:36:06.944Z,622.93
2023-03-30T09:37:06.704Z,622.96
2023-03-30T09:38:06.723Z,622.97
2023-03-30T09:39:06.683Z,622.93
2023-03-30T09:40:06.673Z,622.97
2023-03-30T09:41:06.687Z,622.94
2023-03-30T09:42:06.671Z,622.95
2023-03-30T09:43:06.641Z,622.94
2023-03-30T09:44:06.670Z,622.91
2023-03-30T09:45:06.634Z,622.92
2023-03-30T09:46:07.079Z,622.94
2023-03-30T09:47:06.609Z,623.01
2023-03-30T09:48:06.626Z,624.22
2023-03-30T09:49:06.581Z,628.00
2023-03-30T09:50:06.572Z,628.64
2023-03-30T09:51:06.562Z,627.59
2023-03-30T09:52:06.559Z,625.33
2023-03-30T09:53:06.537Z,629.35
2023-03-30T09:54:06.684Z,629.46
2023-03-30T09:55:06.595Z,630.23
2023-03-30T09:56:06.758Z,634.17
2023-03-30T09:57:06.571Z,638.54
2023-03-30T09:58:06.486Z,644.87
2023-03-30T09:59:06.474Z,644.44
2023-03-30T10:00:06.449Z,644.80
2023-03-30T10:01:06.468Z,643.37
2023-03-30T10:02:08.244Z,645.57
2023-03-30T10:03:06.646Z,649.24
2023-03-30T10:04:06.759Z,646.54
2023-03-30T10:05:06.685Z,641.35
2023-03-30T10:06:06.629Z,642.82
2023-03-30T10:07:18.272Z,641.66
2023-03-30T10:08:06.362Z,638.32
2023-03-30T10:09:06.513Z,636.63
2023-03-30T10:10:06.410Z,638.01
2023-03-30T10:11:06.579Z,638.33
2023-03-30T10:12:06.420Z,643.08
2023-03-30T10:13:06.329Z,648.14
2023-03-30T10:14:06.378Z,650.10
2023-03-30T10:15:06.281Z,653.59
2023-03-30T10:16:06.622Z,654.15
2023-03-30T10:17:06.399Z,652.08
2023-03-30T10:18:06.728Z,654.41
2023-03-30T10:19:06.337Z,654.00
2023-03-30T10:20:13.518Z,652.86
2023-03-30T10:21:07.222Z,655.19
2023-03-30T10:22:06.232Z,652.90
2023-03-30T10:23:06.209Z,652.65
2023-03-30T10:24:06.174Z,656.49
2023-03-30T10:25:08.703Z,658.97
2023-03-30T10:26:06.374Z,659.24
2023-03-30T10:27:06.205Z,661.77
2023-03-30T10:28:06.136Z,661.75
2023-03-30T10:29:06.141Z,664.93
2023-03-30T10:30:06.114Z,669.00
2023-03-30T10:31:06.115Z,668.62
2023-03-30T10:32:06.083Z,671.98
2023-03-30T10:33:06.142Z,669.41
2023-03-30T10:34:06.062Z,667.76
2023-03-30T10:35:06.066Z,669.14
2023-03-30T10:36:06.257Z,671.42
2023-03-30T10:37:06.087Z,678.45
2023-03-30T10:38:06.185Z,683.44
2023-03-30T10:39:08.488Z,682.41
2023-03-30T10:40:06.022Z,685.07
2023-03-30T10:41:05.993Z,685.93
2023-03-30T10:42:06.003Z,682.76
2023-03-30T10:43:05.971Z,692.19
2023-03-30T10:44:06.245Z,691.46
2023-03-30T10:45:05.945Z,691.16
2023-03-30T10:46:18.375Z,690.34
2023-03-30T10:47:05.962Z,687.17
2023-03-30T10:48:15.324Z,686.92
2023-03-30T10:49:05.903Z,693.07
2023-03-30T10:50:05.958Z,692.51
2023-03-30T10:51:05.884Z,695.38
2023-03-30T10:52:05.868Z,692.83
2023-03-30T10:53:05.969Z,695.11
2023-03-30T10:54:05.860Z,695.79
2023-03-30T10:55:05.840Z,692.12
2023-03-30T10:56:06.083Z,692.45
2023-03-30T10:57:05.839Z,692.57
2023-03-30T10:58:05.817Z,699.50
2023-03-30T10:59:05.791Z,699.81
2023-03-30T11:00:05.986Z,698.48
2023-03-30T11:01:05.936Z,695.70
2023-03-30T11:02:05.845Z,698.46
2023-03-30T11:03:05.851Z,699.36
2023-03-30T11:04:20.562Z,696.94
2023-03-30T11:05:05.744Z,699.44
2023-03-30T11:06:06.043Z,698.61
2023-03-30T11:07:05.694Z,698.22
2023-03-30T11:08:05.691Z,701.61
2023-03-30T11:09:05.675Z,702.84
2023-03-30T11:10:05.680Z,698.62
2023-03-30T11:11:05.652Z,694.41
2023-03-30T11:12:05.658Z,700.17
2023-03-30T11:13:05.681Z,703.49
2023-03-30T11:14:05.640Z,705.37
2023-03-30T11:15:05.638Z,703.85
2023-03-30T11:16:06.079Z,702.09
2023-03-30T11:17:05.655Z,706.28
2023-03-30T11:18:05.638Z,705.35
2023-03-30T11:19:05.618Z,711.47
2023-03-30T11:20:05.559Z,705.88
2023-03-30T11:21:05.542Z,704.63
2023-03-30T11:22:05.541Z,704.56
2023-03-30T11:23:05.525Z,705.35
2023-03-30T11:24:05.508Z,708.76
2023-03-30T11:25:05.507Z,705.72
2023-03-30T11:26:05.687Z,699.06
2023-03-30T11:27:05.467Z,695.65
2023-03-30T11:28:05.474Z,693.97
2023-03-30T11:29:05.464Z,695.31
2023-03-30T11:30:05.466Z,693.88
2023-03-30T11:31:05.473Z,696.65
2023-03-30T11:32:05.560Z,695.42
2023-03-30T11:33:05.472Z,695.72
2023-03-30T11:34:05.402Z,699.42
2023-03-30T11:35:05.410Z,704.58
2023-03-30T11:36:05.718Z,701.21
2023-03-30T11:37:06.218Z,698.29
2023-03-30T11:38:05.353Z,699.69
2023-03-30T11:39:05.439Z,693.97
2023-03-30T11:40:05.354Z,690.71
2023-03-30T11:41:05.323Z,691.59
2023-03-30T11:42:05.336Z,694.89
2023-03-30T11:43:05.305Z,697.39
2023-03-30T11:44:05.288Z,701.62
2023-03-30T11:45:05.271Z,703.61
2023-03-30T11:46:05.580Z,704.65
2023-03-30T11:47:05.266Z,701.47
2023-03-30T11:48:05.308Z,702.67
2023-03-30T11:49:05.266Z,702.83
2023-03-30T11:50:05.234Z,696.52
2023-03-30T11:51:05.420Z,697.41
2023-03-30T11:52:05.237Z,700.66
2023-03-30T11:53:05.180Z,701.17
2023-03-30T11:54:05.179Z,701.15
2023-03-30T11:55:05.191Z,698.21
2023-03-30T11:56:05.410Z,702.43
2023-03-30T11:57:05.213Z,701.42
2023-03-30T11:58:06.735Z,703.49
2023-03-30T11:59:05.134Z,703.82
2023-03-30T12:00:05.130Z,699.75
2023-03-30T12:01:05.223Z,698.04
2023-03-30T12:02:07.321Z,702.14
2023-03-30T12:03:05.206Z,704.87
2023-03-30T12:04:05.107Z,707.06
2023-03-30T12:05:05.094Z,704.12
2023-03-30T12:06:05.181Z,701.98
2023-03-30T12:07:05.070Z,702.89
2023-03-30T12:08:05.098Z,698.20
2023-03-30T12:09:05.005Z,701.49
2023-03-30T12:10:07.639Z,701.82
2023-03-30T12:11:05.164Z,703.92
2023-03-30T12:12:04.991Z,710.17
2023-03-30T12:13:04.968Z,712.19
2023-03-30T12:14:04.952Z,715.18
2023-03-30T12:15:04.953Z,711.66
2023-03-30T12:16:05.184Z,710.99
2023-03-30T12:17:04.942Z,701.55
2023-03-30T12:18:05.054Z,705.80
2023-03-30T12:19:04.928Z,709.79
2023-03-30T12:20:04.904Z,705.11
2023-03-30T12:21:04.897Z,703.23
2023-03-30T12:22:04.866Z,704.71
2023-03-30T12:23:04.860Z,711.67
2023-03-30T12:24:05.239Z,700.93
2023-03-30T12:25:04.855Z,698.10
2023-03-30T12:26:05.226Z,696.88
2023-03-30T12:27:07.407Z,696.62
2023-03-30T12:28:04.834Z,701.63
2023-03-30T12:29:26.253Z,699.97
2023-03-30T12:30:05.805Z,710.39